sensor_id;sensor_type;location;lat;lon;timestamp;P1;durP1;ratioP1;P2;durP2;ratioP2
64061;SDS011;50308;47.438;-1.528;2023-10-08T00:01:18;4.75;;;2.55;;
64061;SDS011;50308;47.438;-1.528;2023-10-08T00:03:48;5.43;;;2.80;;
64061;SDS011;50308;47.438;-1.528;2023-10-08T00:06:17;6.57;;;2.45;;
64061;SDS011;50308;47.438;-1.528;2023-10-08T00:08:48;6.38;;;2.60;;
64061;SDS011;50308;47.438;-1.528;2023-10-08T00:11:14;4.10;;;2.80;;
64061;SDS011;50308;47.438;-1.528;2023-10-08T00:13:41;5.45;;;2.90;;
64061;SDS011;50308;47.438;-1.528;2023-10-08T00:16:08;4.75;;;2.85;;
64061;SDS011;50308;47.438;-1.528;2023-10-08T00:18:41;4.20;;;2.17;;
64061;SDS011;50308;47.438;-1.528;2023-10-08T00:21:13;7.43;;;2.75;;
64061;SDS011;50308;47.438;-1.528;2023-10-08T00:23:39;5.90;;;2.60;;
64061;SDS011;50308;47.438;-1.528;2023-10-08T00:26:13;4.75;;;2.70;;
64061;SDS011;50308;47.438;-1.528;2023-10-08T00:28:43;4.75;;;2.90;;
64061;SDS011;50308;47.438;-1.528;2023-10-08T00:31:12;5.50;;;2.67;;
64061;SDS011;50308;47.438;-1.528;2023-10-08T00:33:42;5.25;;;2.90;;
64061;SDS011;50308;47.438;-1.528;2023-10-08T00:36:09;5.95;;;2.78;;
64061;SDS011;50308;47.438;-1.528;2023-10-08T00:38:48;4.75;;;2.80;;
64061;SDS011;50308;47.438;-1.528;2023-10-08T00:41:24;5.95;;;2.83;;
64061;SDS011;50308;47.438;-1.528;2023-10-08T00:43:53;6.10;;;2.97;;
64061;SDS011;50308;47.438;-1.528;2023-10-08T00:46:25;5.28;;;2.75;;
64061;SDS011;50308;47.438;-1.528;2023-10-08T00:49:01;5.00;;;2.72;;
64061;SDS011;50308;47.438;-1.528;2023-10-08T00:51:49;6.40;;;3.67;;
64061;SDS011;50308;47.438;-1.528;2023-10-08T00:54:34;5.85;;;2.95;;
64061;SDS011;50308;47.438;-1.528;2023-10-08T00:57:27;5.70;;;2.70;;
64061;SDS011;50308;47.438;-1.528;2023-10-08T00:59:54;5.25;;;2.38;;
64061;SDS011;50308;47.438;-1.528;2023-10-08T01:02:28;3.58;;;2.55;;
64061;SDS011;50308;47.438;-1.528;2023-10-08T01:05:13;6.20;;;2.97;;
64061;SDS011;50308;47.438;-1.528;2023-10-08T01:07:51;7.63;;;2.90;;
64061;SDS011;50308;47.438;-1.528;2023-10-08T01:10:18;6.30;;;2.83;;
64061;SDS011;50308;47.438;-1.528;2023-10-08T01:12:49;6.63;;;2.83;;
64061;SDS011;50308;47.438;-1.528;2023-10-08T01:15:35;8.10;;;2.38;;
64061;SDS011;50308;47.438;-1.528;2023-10-08T01:18:02;5.10;;;2.50;;
64061;SDS011;50308;47.438;-1.528;2023-10-08T01:20:39;4.38;;;2.67;;
64061;SDS011;50308;47.438;-1.528;2023-10-08T01:23:18;4.95;;;2.70;;
64061;SDS011;50308;47.438;-1.528;2023-10-08T01:25:48;5.73;;;2.80;;
64061;SDS011;50308;47.438;-1.528;2023-10-08T01:28:18;6.18;;;2.83;;
64061;SDS011;50308;47.438;-1.528;2023-10-08T01:30:56;4.45;;;2.60;;
64061;SDS011;50308;47.438;-1.528;2023-10-08T01:33:25;5.57;;;2.83;;
64061;SDS011;50308;47.438;-1.528;2023-10-08T01:35:57;7.55;;;2.75;;
64061;SDS011;50308;47.438;-1.528;2023-10-08T01:38:31;5.10;;;2.88;;
64061;SDS011;50308;47.438;-1.528;2023-10-08T01:41:00;4.97;;;2.80;;
64061;SDS011;50308;47.438;-1.528;2023-10-08T01:43:35;4.25;;;2.70;;
64061;SDS011;50308;47.438;-1.528;2023-10-08T01:46:02;4.22;;;2.53;;
64061;SDS011;50308;47.438;-1.528;2023-10-08T01:48:28;5.43;;;2.35;;
64061;SDS011;50308;47.438;-1.528;2023-10-08T01:51:01;4.35;;;2.42;;
64061;SDS011;50308;47.438;-1.528;2023-10-08T01:53:30;5.57;;;2.72;;
64061;SDS011;50308;47.438;-1.528;2023-10-08T01:55:56;3.92;;;2.42;;
64061;SDS011;50308;47.438;-1.528;2023-10-08T01:58:23;4.90;;;2.55;;
64061;SDS011;50308;47.438;-1.528;2023-10-08T02:00:49;5.32;;;2.22;;
64061;SDS011;50308;47.438;-1.528;2023-10-08T02:03:17;4.78;;;2.60;;
64061;SDS011;50308;47.438;-1.528;2023-10-08T02:08:13;5.15;;;2.20;;
64061;SDS011;50308;47.438;-1.528;2023-10-08T02:10:42;3.33;;;2.15;;
64061;SDS011;50308;47.438;-1.528;2023-10-08T02:13:11;2.60;;;1.95;;
64061;SDS011;50308;47.438;-1.528;2023-10-08T02:15:43;3.88;;;2.47;;
64061;SDS011;50308;47.438;-1.528;2023-10-08T02:18:09;4.95;;;2.50;;
64061;SDS011;50308;47.438;-1.528;2023-10-08T02:20:35;7.57;;;2.35;;
64061;SDS011;50308;47.438;-1.528;2023-10-08T02:23:01;5.20;;;2.65;;
64061;SDS011;50308;47.438;-1.528;2023-10-08T02:25:30;5.22;;;2.60;;
64061;SDS011;50308;47.438;-1.528;2023-10-08T02:27:56;5.90;;;3.00;;
64061;SDS011;50308;47.438;-1.528;2023-10-08T02:30:22;6.75;;;3.38;;
64061;SDS011;50308;47.438;-1.528;2023-10-08T02:32:48;5.00;;;2.80;;
64061;SDS011;50308;47.438;-1.528;2023-10-08T02:35:14;5.63;;;2.55;;
64061;SDS011;50308;47.438;-1.528;2023-10-08T02:37:40;3.67;;;2.40;;
64061;SDS011;50308;47.438;-1.528;2023-10-08T02:40:07;3.95;;;2.28;;
64061;SDS011;50308;47.438;-1.528;2023-10-08T02:42:41;4.57;;;2.55;;
64061;SDS011;50308;47.438;-1.528;2023-10-08T02:45:09;4.47;;;2.65;;
64061;SDS011;50308;47.438;-1.528;2023-10-08T02:47:40;4.97;;;2.45;;
64061;SDS011;50308;47.438;-1.528;2023-10-08T02:50:07;4.63;;;2.70;;
64061;SDS011;50308;47.438;-1.528;2023-10-08T02:52:34;4.95;;;2.30;;
64061;SDS011;50308;47.438;-1.528;2023-10-08T02:55:00;4.10;;;2.60;;
64061;SDS011;50308;47.438;-1.528;2023-10-08T02:57:25;4.70;;;3.03;;
64061;SDS011;50308;47.438;-1.528;2023-10-08T02:59:54;3.53;;;2.72;;
64061;SDS011;50308;47.438;-1.528;2023-10-08T03:02:20;5.25;;;2.78;;
64061;SDS011;50308;47.438;-1.528;2023-10-08T03:04:49;4.25;;;2.60;;
64061;SDS011;50308;47.438;-1.528;2023-10-08T03:07:17;4.97;;;2.60;;
64061;SDS011;50308;47.438;-1.528;2023-10-08T03:09:50;5.13;;;2.35;;
64061;SDS011;50308;47.438;-1.528;2023-10-08T03:12:16;5.03;;;3.05;;
64061;SDS011;50308;47.438;-1.528;2023-10-08T03:14:43;5.10;;;2.50;;
64061;SDS011;50308;47.438;-1.528;2023-10-08T03:17:30;4.75;;;2.60;;
64061;SDS011;50308;47.438;-1.528;2023-10-08T03:20:02;4.72;;;2.38;;
64061;SDS011;50308;47.438;-1.528;2023-10-08T03:22:48;4.72;;;2.80;;
64061;SDS011;50308;47.438;-1.528;2023-10-08T03:25:14;4.70;;;2.67;;
64061;SDS011;50308;47.438;-1.528;2023-10-08T03:27:42;6.72;;;2.72;;
64061;SDS011;50308;47.438;-1.528;2023-10-08T03:30:08;4.40;;;3.33;;
64061;SDS011;50308;47.438;-1.528;2023-10-08T03:32:42;3.38;;;2.20;;
64061;SDS011;50308;47.438;-1.528;2023-10-08T03:35:20;4.28;;;2.20;;
64061;SDS011;50308;47.438;-1.528;2023-10-08T03:37:52;9.52;;;2.83;;
64061;SDS011;50308;47.438;-1.528;2023-10-08T03:40:19;3.63;;;2.38;;
64061;SDS011;50308;47.438;-1.528;2023-10-08T03:42:51;4.68;;;2.47;;
64061;SDS011;50308;47.438;-1.528;2023-10-08T03:45:20;5.00;;;2.38;;
64061;SDS011;50308;47.438;-1.528;2023-10-08T03:48:19;3.53;;;2.65;;
64061;SDS011;50308;47.438;-1.528;2023-10-08T03:50:47;6.47;;;2.60;;
64061;SDS011;50308;47.438;-1.528;2023-10-08T03:53:21;4.95;;;2.50;;
64061;SDS011;50308;47.438;-1.528;2023-10-08T03:55:48;4.32;;;1.83;;
64061;SDS011;50308;47.438;-1.528;2023-10-08T03:58:17;4.07;;;2.45;;
64061;SDS011;50308;47.438;-1.528;2023-10-08T04:00:55;3.60;;;2.17;;
64061;SDS011;50308;47.438;-1.528;2023-10-08T04:03:33;4.28;;;2.17;;
64061;SDS011;50308;47.438;-1.528;2023-10-08T04:06:28;3.72;;;2.83;;
64061;SDS011;50308;47.438;-1.528;2023-10-08T04:09:00;3.90;;;2.60;;
64061;SDS011;50308;47.438;-1.528;2023-10-08T04:11:46;3.08;;;2.08;;
64061;SDS011;50308;47.438;-1.528;2023-10-08T04:14:12;3.90;;;2.58;;
64061;SDS011;50308;47.438;-1.528;2023-10-08T04:16:41;3.65;;;2.15;;
64061;SDS011;50308;47.438;-1.528;2023-10-08T04:19:07;5.10;;;2.40;;
64061;SDS011;50308;47.438;-1.528;2023-10-08T04:21:33;3.08;;;2.08;;
64061;SDS011;50308;47.438;-1.528;2023-10-08T04:24:02;3.58;;;2.15;;
64061;SDS011;50308;47.438;-1.528;2023-10-08T04:26:31;3.47;;;2.30;;
64061;SDS011;50308;47.438;-1.528;2023-10-08T04:28:58;6.57;;;2.42;;
64061;SDS011;50308;47.438;-1.528;2023-10-08T04:31:30;4.55;;;2.40;;
64061;SDS011;50308;47.438;-1.528;2023-10-08T04:34:06;4.35;;;2.17;;
64061;SDS011;50308;47.438;-1.528;2023-10-08T04:36:41;4.93;;;2.38;;
64061;SDS011;50308;47.438;-1.528;2023-10-08T04:39:14;6.40;;;2.65;;
64061;SDS011;50308;47.438;-1.528;2023-10-08T04:41:46;4.80;;;2.17;;
64061;SDS011;50308;47.438;-1.528;2023-10-08T04:44:13;3.28;;;1.90;;
64061;SDS011;50308;47.438;-1.528;2023-10-08T04:46:44;4.15;;;2.53;;
64061;SDS011;50308;47.438;-1.528;2023-10-08T04:49:10;4.05;;;2.92;;
64061;SDS011;50308;47.438;-1.528;2023-10-08T04:51:48;3.65;;;2.20;;
64061;SDS011;50308;47.438;-1.528;2023-10-08T04:54:14;4.78;;;2.38;;
64061;SDS011;50308;47.438;-1.528;2023-10-08T04:56:43;6.32;;;2.55;;
64061;SDS011;50308;47.438;-1.528;2023-10-08T04:59:09;2.97;;;1.90;;
64061;SDS011;50308;47.438;-1.528;2023-10-08T05:01:38;4.07;;;2.70;;
64061;SDS011;50308;47.438;-1.528;2023-10-08T05:04:12;4.30;;;2.30;;
64061;SDS011;50308;47.438;-1.528;2023-10-08T05:06:48;4.47;;;2.20;;
64061;SDS011;50308;47.438;-1.528;2023-10-08T05:09:26;4.72;;;2.72;;
64061;SDS011;50308;47.438;-1.528;2023-10-08T05:12:06;2.65;;;2.03;;
64061;SDS011;50308;47.438;-1.528;2023-10-08T05:14:50;3.22;;;2.20;;
64061;SDS011;50308;47.438;-1.528;2023-10-08T05:17:45;3.33;;;2.20;;
64061;SDS011;50308;47.438;-1.528;2023-10-08T05:20:14;4.22;;;2.20;;
64061;SDS011;50308;47.438;-1.528;2023-10-08T05:22:59;4.28;;;2.10;;
64061;SDS011;50308;47.438;-1.528;2023-10-08T05:25:51;3.08;;;2.45;;
64061;SDS011;50308;47.438;-1.528;2023-10-08T05:28:27;4.32;;;2.78;;
64061;SDS011;50308;47.438;-1.528;2023-10-08T05:33:36;7.32;;;2.50;;
64061;SDS011;50308;47.438;-1.528;2023-10-08T05:36:25;5.30;;;2.30;;
64061;SDS011;50308;47.438;-1.528;2023-10-08T05:38:59;3.95;;;2.63;;
64061;SDS011;50308;47.438;-1.528;2023-10-08T05:41:44;4.22;;;2.45;;
64061;SDS011;50308;47.438;-1.528;2023-10-08T05:44:40;4.35;;;2.13;;
64061;SDS011;50308;47.438;-1.528;2023-10-08T05:47:11;3.20;;;2.45;;
64061;SDS011;50308;47.438;-1.528;2023-10-08T05:49:58;5.45;;;2.67;;
64061;SDS011;50308;47.438;-1.528;2023-10-08T05:52:42;3.70;;;2.25;;
64061;SDS011;50308;47.438;-1.528;2023-10-08T05:55:24;4.45;;;2.35;;
64061;SDS011;50308;47.438;-1.528;2023-10-08T05:58:09;3.92;;;2.33;;
64061;SDS011;50308;47.438;-1.528;2023-10-08T06:00:44;4.13;;;2.33;;
64061;SDS011;50308;47.438;-1.528;2023-10-08T06:03:27;3.40;;;2.35;;
64061;SDS011;50308;47.438;-1.528;2023-10-08T06:06:08;4.68;;;2.63;;
64061;SDS011;50308;47.438;-1.528;2023-10-08T06:08:39;3.25;;;2.22;;
64061;SDS011;50308;47.438;-1.528;2023-10-08T06:11:34;3.30;;;2.30;;
64061;SDS011;50308;47.438;-1.528;2023-10-08T06:14:07;3.20;;;2.10;;
64061;SDS011;50308;47.438;-1.528;2023-10-08T06:16:39;3.55;;;2.22;;
64061;SDS011;50308;47.438;-1.528;2023-10-08T06:19:07;4.88;;;2.42;;
64061;SDS011;50308;47.438;-1.528;2023-10-08T06:21:35;3.17;;;1.95;;
64061;SDS011;50308;47.438;-1.528;2023-10-08T06:24:03;5.00;;;2.47;;
64061;SDS011;50308;47.438;-1.528;2023-10-08T06:26:34;3.25;;;2.33;;
64061;SDS011;50308;47.438;-1.528;2023-10-08T06:29:13;3.70;;;2.42;;
64061;SDS011;50308;47.438;-1.528;2023-10-08T06:31:55;3.15;;;2.15;;
64061;SDS011;50308;47.438;-1.528;2023-10-08T06:34:22;4.35;;;2.78;;
64061;SDS011;50308;47.438;-1.528;2023-10-08T06:36:52;4.45;;;2.33;;
64061;SDS011;50308;47.438;-1.528;2023-10-08T06:39:23;4.20;;;2.30;;
64061;SDS011;50308;47.438;-1.528;2023-10-08T06:42:12;3.72;;;2.15;;
64061;SDS011;50308;47.438;-1.528;2023-10-08T06:44:42;2.70;;;2.23;;
64061;SDS011;50308;47.438;-1.528;2023-10-08T06:47:11;3.38;;;2.08;;
64061;SDS011;50308;47.438;-1.528;2023-10-08T06:49:40;3.67;;;2.63;;
64061;SDS011;50308;47.438;-1.528;2023-10-08T06:52:08;3.50;;;2.33;;
64061;SDS011;50308;47.438;-1.528;2023-10-08T06:54:36;3.88;;;1.92;;
64061;SDS011;50308;47.438;-1.528;2023-10-08T06:57:02;3.70;;;2.30;;
64061;SDS011;50308;47.438;-1.528;2023-10-08T06:59:28;2.78;;;2.22;;
64061;SDS011;50308;47.438;-1.528;2023-10-08T07:01:56;2.75;;;1.83;;
64061;SDS011;50308;47.438;-1.528;2023-10-08T07:04:24;3.58;;;2.08;;
64061;SDS011;50308;47.438;-1.528;2023-10-08T07:06:50;3.88;;;2.40;;
64061;SDS011;50308;47.438;-1.528;2023-10-08T07:09:16;3.80;;;1.98;;
64061;SDS011;50308;47.438;-1.528;2023-10-08T07:11:54;3.85;;;2.40;;
64061;SDS011;50308;47.438;-1.528;2023-10-08T07:14:21;3.72;;;2.40;;
64061;SDS011;50308;47.438;-1.528;2023-10-08T07:16:48;4.45;;;2.58;;
64061;SDS011;50308;47.438;-1.528;2023-10-08T07:19:17;5.80;;;2.35;;
64061;SDS011;50308;47.438;-1.528;2023-10-08T07:21:46;3.53;;;2.08;;
64061;SDS011;50308;47.438;-1.528;2023-10-08T07:24:15;4.93;;;2.60;;
64061;SDS011;50308;47.438;-1.528;2023-10-08T07:26:41;3.65;;;2.33;;
64061;SDS011;50308;47.438;-1.528;2023-10-08T07:29:12;4.28;;;2.55;;
64061;SDS011;50308;47.438;-1.528;2023-10-08T07:31:45;5.03;;;2.42;;
64061;SDS011;50308;47.438;-1.528;2023-10-08T07:34:15;2.75;;;2.17;;
64061;SDS011;50308;47.438;-1.528;2023-10-08T07:36:43;5.15;;;2.40;;
64061;SDS011;50308;47.438;-1.528;2023-10-08T07:39:12;4.10;;;2.20;;
64061;SDS011;50308;47.438;-1.528;2023-10-08T07:41:56;4.65;;;2.40;;
64061;SDS011;50308;47.438;-1.528;2023-10-08T07:44:24;4.15;;;2.70;;
64061;SDS011;50308;47.438;-1.528;2023-10-08T07:46:51;3.88;;;2.30;;
64061;SDS011;50308;47.438;-1.528;2023-10-08T07:49:21;3.55;;;2.55;;
64061;SDS011;50308;47.438;-1.528;2023-10-08T07:51:50;3.80;;;2.63;;
64061;SDS011;50308;47.438;-1.528;2023-10-08T07:54:26;4.20;;;2.35;;
64061;SDS011;50308;47.438;-1.528;2023-10-08T07:56:59;4.50;;;2.97;;
64061;SDS011;50308;47.438;-1.528;2023-10-08T07:59:35;2.92;;;2.50;;
64061;SDS011;50308;47.438;-1.528;2023-10-08T08:02:16;4.22;;;2.80;;
64061;SDS011;50308;47.438;-1.528;2023-10-08T08:04:42;3.95;;;2.83;;
64061;SDS011;50308;47.438;-1.528;2023-10-08T08:07:10;3.65;;;2.60;;
64061;SDS011;50308;47.438;-1.528;2023-10-08T08:09:43;4.00;;;2.80;;
64061;SDS011;50308;47.438;-1.528;2023-10-08T08:12:15;4.00;;;2.97;;
64061;SDS011;50308;47.438;-1.528;2023-10-08T08:14:42;4.10;;;2.97;;
64061;SDS011;50308;47.438;-1.528;2023-10-08T08:17:08;6.20;;;3.45;;
64061;SDS011;50308;47.438;-1.528;2023-10-08T08:19:43;4.38;;;2.90;;
64061;SDS011;50308;47.438;-1.528;2023-10-08T08:22:12;4.22;;;2.75;;
64061;SDS011;50308;47.438;-1.528;2023-10-08T08:24:45;3.75;;;2.72;;
64061;SDS011;50308;47.438;-1.528;2023-10-08T08:27:18;4.80;;;2.83;;
64061;SDS011;50308;47.438;-1.528;2023-10-08T08:30:03;5.20;;;3.03;;
64061;SDS011;50308;47.438;-1.528;2023-10-08T08:32:40;4.78;;;2.72;;
64061;SDS011;50308;47.438;-1.528;2023-10-08T08:35:10;6.22;;;2.80;;
64061;SDS011;50308;47.438;-1.528;2023-10-08T08:37:37;4.65;;;2.97;;
64061;SDS011;50308;47.438;-1.528;2023-10-08T08:40:06;3.85;;;2.78;;
64061;SDS011;50308;47.438;-1.528;2023-10-08T08:42:50;5.30;;;2.85;;
64061;SDS011;50308;47.438;-1.528;2023-10-08T08:45:21;4.53;;;2.80;;
64061;SDS011;50308;47.438;-1.528;2023-10-08T08:47:49;4.30;;;2.63;;
64061;SDS011;50308;47.438;-1.528;2023-10-08T08:50:17;3.90;;;2.42;;
64061;SDS011;50308;47.438;-1.528;2023-10-08T08:52:44;5.65;;;2.90;;
64061;SDS011;50308;47.438;-1.528;2023-10-08T08:55:13;3.22;;;2.28;;
64061;SDS011;50308;47.438;-1.528;2023-10-08T08:57:43;6.22;;;3.10;;
64061;SDS011;50308;47.438;-1.528;2023-10-08T09:00:13;4.72;;;2.80;;
64061;SDS011;50308;47.438;-1.528;2023-10-08T09:02:41;5.80;;;2.58;;
64061;SDS011;50308;47.438;-1.528;2023-10-08T09:05:09;4.15;;;2.35;;
64061;SDS011;50308;47.438;-1.528;2023-10-08T09:07:55;3.60;;;2.60;;
64061;SDS011;50308;47.438;-1.528;2023-10-08T09:10:23;3.80;;;2.30;;
64061;SDS011;50308;47.438;-1.528;2023-10-08T09:12:54;6.32;;;2.90;;
64061;SDS011;50308;47.438;-1.528;2023-10-08T09:15:24;3.10;;;2.20;;
64061;SDS011;50308;47.438;-1.528;2023-10-08T09:17:54;5.00;;;3.10;;
64061;SDS011;50308;47.438;-1.528;2023-10-08T09:20:21;4.53;;;2.90;;
64061;SDS011;50308;47.438;-1.528;2023-10-08T09:25:33;3.95;;;2.40;;
64061;SDS011;50308;47.438;-1.528;2023-10-08T09:28:00;4.88;;;2.60;;
64061;SDS011;50308;47.438;-1.528;2023-10-08T09:30:27;4.82;;;2.90;;
64061;SDS011;50308;47.438;-1.528;2023-10-08T09:32:54;3.97;;;2.50;;
64061;SDS011;50308;47.438;-1.528;2023-10-08T09:35:20;7.45;;;2.88;;
64061;SDS011;50308;47.438;-1.528;2023-10-08T09:37:49;5.88;;;2.83;;
64061;SDS011;50308;47.438;-1.528;2023-10-08T09:40:15;4.43;;;2.80;;
64061;SDS011;50308;47.438;-1.528;2023-10-08T09:42:46;4.90;;;2.85;;
64061;SDS011;50308;47.438;-1.528;2023-10-08T09:45:13;5.80;;;2.83;;
64061;SDS011;50308;47.438;-1.528;2023-10-08T09:47:38;7.47;;;3.30;;
64061;SDS011;50308;47.438;-1.528;2023-10-08T09:50:11;5.20;;;2.10;;
64061;SDS011;50308;47.438;-1.528;2023-10-08T09:53:00;5.70;;;3.20;;
64061;SDS011;50308;47.438;-1.528;2023-10-08T09:55:57;6.68;;;3.28;;
64061;SDS011;50308;47.438;-1.528;2023-10-08T09:58:23;8.35;;;3.40;;
64061;SDS011;50308;47.438;-1.528;2023-10-08T10:00:51;7.43;;;4.20;;
64061;SDS011;50308;47.438;-1.528;2023-10-08T10:03:19;9.18;;;4.25;;
64061;SDS011;50308;47.438;-1.528;2023-10-08T10:05:47;7.43;;;5.00;;
64061;SDS011;50308;47.438;-1.528;2023-10-08T10:08:13;15.63;;;7.25;;
64061;SDS011;50308;47.438;-1.528;2023-10-08T10:10:40;12.20;;;9.32;;
64061;SDS011;50308;47.438;-1.528;2023-10-08T10:13:11;14.60;;;9.27;;
64061;SDS011;50308;47.438;-1.528;2023-10-08T10:15:37;13.10;;;10.07;;
64061;SDS011;50308;47.438;-1.528;2023-10-08T10:18:26;12.88;;;9.57;;
64061;SDS011;50308;47.438;-1.528;2023-10-08T10:21:00;15.13;;;10.45;;
64061;SDS011;50308;47.438;-1.528;2023-10-08T10:23:46;13.88;;;9.68;;
64061;SDS011;50308;47.438;-1.528;2023-10-08T10:31:37;13.23;;;8.90;;
64061;SDS011;50308;47.438;-1.528;2023-10-08T10:34:07;15.25;;;10.65;;
64061;SDS011;50308;47.438;-1.528;2023-10-08T10:36:37;14.93;;;10.88;;
64061;SDS011;50308;47.438;-1.528;2023-10-08T10:39:07;12.40;;;10.02;;
64061;SDS011;50308;47.438;-1.528;2023-10-08T10:41:51;12.48;;;9.55;;
64061;SDS011;50308;47.438;-1.528;2023-10-08T10:44:22;14.07;;;8.60;;
64061;SDS011;50308;47.438;-1.528;2023-10-08T10:46:49;10.43;;;8.07;;
64061;SDS011;50308;47.438;-1.528;2023-10-08T10:49:37;13.27;;;8.13;;
64061;SDS011;50308;47.438;-1.528;2023-10-08T10:52:23;11.10;;;7.53;;
64061;SDS011;50308;47.438;-1.528;2023-10-08T10:55:22;12.05;;;8.15;;
64061;SDS011;50308;47.438;-1.528;2023-10-08T10:57:56;9.65;;;7.32;;
64061;SDS011;50308;47.438;-1.528;2023-10-08T11:00:29;10.18;;;6.43;;
64061;SDS011;50308;47.438;-1.528;2023-10-08T11:02:57;9.60;;;6.88;;
64061;SDS011;50308;47.438;-1.528;2023-10-08T11:07:55;11.27;;;7.07;;
64061;SDS011;50308;47.438;-1.528;2023-10-08T11:10:36;9.85;;;6.32;;
64061;SDS011;50308;47.438;-1.528;2023-10-08T11:13:06;9.50;;;6.13;;
64061;SDS011;50308;47.438;-1.528;2023-10-08T11:15:39;8.45;;;5.70;;
64061;SDS011;50308;47.438;-1.528;2023-10-08T11:18:07;7.57;;;5.13;;
64061;SDS011;50308;47.438;-1.528;2023-10-08T11:20:34;7.40;;;4.70;;
64061;SDS011;50308;47.438;-1.528;2023-10-08T11:23:05;8.48;;;5.22;;
64061;SDS011;50308;47.438;-1.528;2023-10-08T11:25:55;10.75;;;5.32;;
64061;SDS011;50308;47.438;-1.528;2023-10-08T11:28:32;6.95;;;4.88;;
64061;SDS011;50308;47.438;-1.528;2023-10-08T11:31:21;7.20;;;4.80;;
64061;SDS011;50308;47.438;-1.528;2023-10-08T11:33:46;6.60;;;4.50;;
64061;SDS011;50308;47.438;-1.528;2023-10-08T11:36:19;8.48;;;4.30;;
64061;SDS011;50308;47.438;-1.528;2023-10-08T11:38:53;7.88;;;4.53;;
64061;SDS011;50308;47.438;-1.528;2023-10-08T11:41:26;8.52;;;5.50;;
64061;SDS011;50308;47.438;-1.528;2023-10-08T11:43:54;7.03;;;4.47;;
64061;SDS011;50308;47.438;-1.528;2023-10-08T11:48:51;7.85;;;4.57;;
64061;SDS011;50308;47.438;-1.528;2023-10-08T11:51:17;6.97;;;3.75;;
64061;SDS011;50308;47.438;-1.528;2023-10-08T11:53:43;7.32;;;3.65;;
64061;SDS011;50308;47.438;-1.528;2023-10-08T11:56:12;5.93;;;3.78;;
64061;SDS011;50308;47.438;-1.528;2023-10-08T11:58:39;6.30;;;4.00;;
64061;SDS011;50308;47.438;-1.528;2023-10-08T12:03:41;5.55;;;3.15;;
64061;SDS011;50308;47.438;-1.528;2023-10-08T12:06:08;5.82;;;3.28;;
64061;SDS011;50308;47.438;-1.528;2023-10-08T12:08:40;5.68;;;2.92;;
64061;SDS011;50308;47.438;-1.528;2023-10-08T12:11:11;4.22;;;2.72;;
64061;SDS011;50308;47.438;-1.528;2023-10-08T12:13:38;6.43;;;2.85;;
64061;SDS011;50308;47.438;-1.528;2023-10-08T12:16:10;4.88;;;2.60;;
64061;SDS011;50308;47.438;-1.528;2023-10-08T12:18:48;7.57;;;3.55;;
64061;SDS011;50308;47.438;-1.528;2023-10-08T12:21:18;4.95;;;2.72;;
64061;SDS011;50308;47.438;-1.528;2023-10-08T12:23:47;4.13;;;2.78;;
64061;SDS011;50308;47.438;-1.528;2023-10-08T12:26:14;3.75;;;2.65;;
64061;SDS011;50308;47.438;-1.528;2023-10-08T12:28:46;5.75;;;2.80;;
64061;SDS011;50308;47.438;-1.528;2023-10-08T12:31:19;4.82;;;2.70;;
64061;SDS011;50308;47.438;-1.528;2023-10-08T12:33:49;4.50;;;2.50;;
64061;SDS011;50308;47.438;-1.528;2023-10-08T12:36:28;4.78;;;2.50;;
64061;SDS011;50308;47.438;-1.528;2023-10-08T12:38:58;5.22;;;2.47;;
64061;SDS011;50308;47.438;-1.528;2023-10-08T12:41:27;4.25;;;2.58;;
64061;SDS011;50308;47.438;-1.528;2023-10-08T12:43:53;3.67;;;2.63;;
64061;SDS011;50308;47.438;-1.528;2023-10-08T12:46:19;5.63;;;2.80;;
64061;SDS011;50308;47.438;-1.528;2023-10-08T12:48:55;6.22;;;2.38;;
64061;SDS011;50308;47.438;-1.528;2023-10-08T12:51:21;6.47;;;2.78;;
64061;SDS011;50308;47.438;-1.528;2023-10-08T12:53:50;4.20;;;2.47;;
64061;SDS011;50308;47.438;-1.528;2023-10-08T12:56:23;4.32;;;2.40;;
64061;SDS011;50308;47.438;-1.528;2023-10-08T12:58:57;6.28;;;2.80;;
64061;SDS011;50308;47.438;-1.528;2023-10-08T13:01:23;3.97;;;2.40;;
64061;SDS011;50308;47.438;-1.528;2023-10-08T13:03:53;4.15;;;2.58;;
64061;SDS011;50308;47.438;-1.528;2023-10-08T13:06:24;5.45;;;2.17;;
64061;SDS011;50308;47.438;-1.528;2023-10-08T13:08:54;4.05;;;2.30;;
64061;SDS011;50308;47.438;-1.528;2023-10-08T13:11:22;4.85;;;2.13;;
64061;SDS011;50308;47.438;-1.528;2023-10-08T13:13:52;4.20;;;2.47;;
64061;SDS011;50308;47.438;-1.528;2023-10-08T13:16:21;4.07;;;2.27;;
64061;SDS011;50308;47.438;-1.528;2023-10-08T13:18:48;6.05;;;2.78;;
64061;SDS011;50308;47.438;-1.528;2023-10-08T13:21:14;3.97;;;2.33;;
64061;SDS011;50308;47.438;-1.528;2023-10-08T13:23:40;4.22;;;2.33;;
64061;SDS011;50308;47.438;-1.528;2023-10-08T13:26:07;5.88;;;2.45;;
64061;SDS011;50308;47.438;-1.528;2023-10-08T13:28:34;4.30;;;2.03;;
64061;SDS011;50308;47.438;-1.528;2023-10-08T13:31:01;6.22;;;2.72;;
64061;SDS011;50308;47.438;-1.528;2023-10-08T13:33:35;3.95;;;2.20;;
64061;SDS011;50308;47.438;-1.528;2023-10-08T13:36:04;5.53;;;2.47;;
64061;SDS011;50308;47.438;-1.528;2023-10-08T13:38:36;4.13;;;2.33;;
64061;SDS011;50308;47.438;-1.528;2023-10-08T13:41:06;3.65;;;2.35;;
64061;SDS011;50308;47.438;-1.528;2023-10-08T13:43:40;5.88;;;2.30;;
64061;SDS011;50308;47.438;-1.528;2023-10-08T13:46:16;4.85;;;2.40;;
64061;SDS011;50308;47.438;-1.528;2023-10-08T13:48:43;4.30;;;2.45;;
64061;SDS011;50308;47.438;-1.528;2023-10-08T13:51:14;3.63;;;2.58;;
64061;SDS011;50308;47.438;-1.528;2023-10-08T13:53:48;5.10;;;2.38;;
64061;SDS011;50308;47.438;-1.528;2023-10-08T13:56:17;3.88;;;2.03;;
64061;SDS011;50308;47.438;-1.528;2023-10-08T13:58:51;5.57;;;2.67;;
64061;SDS011;50308;47.438;-1.528;2023-10-08T14:01:30;5.00;;;2.55;;
64061;SDS011;50308;47.438;-1.528;2023-10-08T14:03:58;3.72;;;2.08;;
64061;SDS011;50308;47.438;-1.528;2023-10-08T14:06:31;3.88;;;2.38;;
64061;SDS011;50308;47.438;-1.528;2023-10-08T14:08:57;4.68;;;2.42;;
64061;SDS011;50308;47.438;-1.528;2023-10-08T14:11:25;4.80;;;2.50;;
64061;SDS011;50308;47.438;-1.528;2023-10-08T14:13:58;4.70;;;2.33;;
64061;SDS011;50308;47.438;-1.528;2023-10-08T14:16:27;4.47;;;2.70;;
64061;SDS011;50308;47.438;-1.528;2023-10-08T14:18:56;5.90;;;2.38;;
64061;SDS011;50308;47.438;-1.528;2023-10-08T14:21:24;4.30;;;2.13;;
64061;SDS011;50308;47.438;-1.528;2023-10-08T14:23:55;3.63;;;2.15;;
64061;SDS011;50308;47.438;-1.528;2023-10-08T14:26:27;4.38;;;2.30;;
64061;SDS011;50308;47.438;-1.528;2023-10-08T14:29:01;5.03;;;2.45;;
64061;SDS011;50308;47.438;-1.528;2023-10-08T14:31:35;7.57;;;2.03;;
64061;SDS011;50308;47.438;-1.528;2023-10-08T14:34:04;4.50;;;2.20;;
64061;SDS011;50308;47.438;-1.528;2023-10-08T14:36:43;5.10;;;2.30;;
64061;SDS011;50308;47.438;-1.528;2023-10-08T14:39:29;4.50;;;2.92;;
64061;SDS011;50308;47.438;-1.528;2023-10-08T14:42:13;6.03;;;2.80;;
64061;SDS011;50308;47.438;-1.528;2023-10-08T14:44:57;4.20;;;2.15;;
64061;SDS011;50308;47.438;-1.528;2023-10-08T14:47:23;4.80;;;2.08;;
64061;SDS011;50308;47.438;-1.528;2023-10-08T14:49:49;4.90;;;2.05;;
64061;SDS011;50308;47.438;-1.528;2023-10-08T14:52:15;4.30;;;2.30;;
64061;SDS011;50308;47.438;-1.528;2023-10-08T14:54:42;4.20;;;2.10;;
64061;SDS011;50308;47.438;-1.528;2023-10-08T14:57:08;3.83;;;2.08;;
64061;SDS011;50308;47.438;-1.528;2023-10-08T14:59:35;4.43;;;1.77;;
64061;SDS011;50308;47.438;-1.528;2023-10-08T15:02:01;5.97;;;2.55;;
64061;SDS011;50308;47.438;-1.528;2023-10-08T15:04:26;5.70;;;2.08;;
64061;SDS011;50308;47.438;-1.528;2023-10-08T15:06:53;4.93;;;1.80;;
64061;SDS011;50308;47.438;-1.528;2023-10-08T15:09:21;3.97;;;2.20;;
64061;SDS011;50308;47.438;-1.528;2023-10-08T15:11:49;4.75;;;2.30;;
64061;SDS011;50308;47.438;-1.528;2023-10-08T15:14:21;3.83;;;2.13;;
64061;SDS011;50308;47.438;-1.528;2023-10-08T15:16:48;3.45;;;1.73;;
64061;SDS011;50308;47.438;-1.528;2023-10-08T15:19:21;3.25;;;1.75;;
64061;SDS011;50308;47.438;-1.528;2023-10-08T15:21:48;3.72;;;1.80;;